createdAt,value
2023-05-02T00:02:15.446Z,100.00
2023-05-02T00:04:45.167Z,100.00
2023-05-02T00:07:11.983Z,100.00
2023-05-02T00:09:38.753Z,100.00
2023-05-02T00:12:05.486Z,100.00
2023-05-02T00:14:32.010Z,100.00
2023-05-02T00:16:58.713Z,100.00
2023-05-02T00:19:25.314Z,100.00
2023-05-02T00:21:51.909Z,100.00
2023-05-02T00:24:18.934Z,100.00
2023-05-02T00:26:46.242Z,100.00
2023-05-02T00:29:12.933Z,100.00
2023-05-02T00:31:41.244Z,100.00
2023-05-02T00:34:07.849Z,100.00
2023-05-02T00:36:34.390Z,100.00
2023-05-02T00:39:00.820Z,100.00
2023-05-02T00:41:27.542Z,100.00
2023-05-02T00:43:54.013Z,100.00
2023-05-02T00:46:21.360Z,100.00
2023-05-02T00:48:48.086Z,100.00
2023-05-02T00:51:15.361Z,100.00
2023-05-02T00:53:42.510Z,100.00
2023-05-02T00:56:09.877Z,100.00
2023-05-02T00:58:47.355Z,100.00
2023-05-02T01:01:20.525Z,100.00
2023-05-02T01:04:05.051Z,100.00
2023-05-02T01:10:41.985Z,100.00
2023-05-02T01:13:25.896Z,100.00
2023-05-02T01:15:54.061Z,100.00
2023-05-02T01:18:25.190Z,100.00
2023-05-02T01:20:57.449Z,100.00
2023-05-02T01:23:53.471Z,100.00
2023-05-02T01:26:41.506Z,100.00
2023-05-02T01:29:15.178Z,100.00
2023-05-02T01:31:44.711Z,100.00
2023-05-02T01:34:18.370Z,100.00
2023-05-02T01:36:47.113Z,100.00
2023-05-02T01:39:17.595Z,100.00
2023-05-02T01:41:47.038Z,100.00
2023-05-02T01:44:17.174Z,100.00
2023-05-02T01:46:44.591Z,100.00
2023-05-02T01:49:11.650Z,100.00
2023-05-02T01:51:45.402Z,100.00
2023-05-02T01:54:15.762Z,100.00
2023-05-02T01:56:43.658Z,100.00
2023-05-02T01:59:14.268Z,100.00
2023-05-02T02:01:43.644Z,100.00
2023-05-02T02:04:13.022Z,100.00
2023-05-02T02:06:43.595Z,100.00
2023-05-02T02:09:10.322Z,100.00
2023-05-02T02:11:47.249Z,100.00
2023-05-02T02:14:33.504Z,100.00
2023-05-02T02:17:02.568Z,100.00
2023-05-02T02:19:30.866Z,100.00
2023-05-02T02:22:00.809Z,100.00
2023-05-02T02:24:28.105Z,100.00
2023-05-02T02:26:54.577Z,100.00
2023-05-02T02:29:21.044Z,100.00
2023-05-02T02:31:47.496Z,100.00
2023-05-02T02:34:13.997Z,100.00
2023-05-02T02:37:01.705Z,100.00
2023-05-02T02:39:42.963Z,100.00
2023-05-02T02:42:27.616Z,100.00
2023-05-02T02:45:17.145Z,100.00
2023-05-02T02:48:16.321Z,100.00
2023-05-02T02:50:59.632Z,100.00
2023-05-02T02:53:44.526Z,100.00
2023-05-02T02:56:18.547Z,100.00
2023-05-02T02:59:06.598Z,100.00
2023-05-02T03:01:36.365Z,100.00
2023-05-02T03:04:07.124Z,100.00
2023-05-02T03:06:34.037Z,100.00
2023-05-02T03:09:01.620Z,100.00
2023-05-02T03:11:29.606Z,100.00
2023-05-02T03:13:56.312Z,100.00
2023-05-02T03:16:39.505Z,100.00
2023-05-02T03:19:07.573Z,100.00
2023-05-02T03:21:34.667Z,100.00
2023-05-02T03:24:02.832Z,100.00
2023-05-02T03:26:37.671Z,100.00
2023-05-02T03:29:05.302Z,100.00
2023-05-02T03:31:35.067Z,100.00
2023-05-02T03:34:02.784Z,100.00
2023-05-02T03:36:29.212Z,100.00
2023-05-02T03:38:56.010Z,100.00
2023-05-02T03:41:22.909Z,100.00
2023-05-02T03:43:49.372Z,100.00
2023-05-02T03:46:15.998Z,100.00
2023-05-02T03:48:42.810Z,100.00
2023-05-02T03:51:10.042Z,100.00
2023-05-02T03:53:37.997Z,100.00
2023-05-02T03:56:20.755Z,100.00
2023-05-02T03:58:48.777Z,100.00
2023-05-02T04:01:16.234Z,100.00
2023-05-02T04:03:43.534Z,100.00
2023-05-02T04:06:10.414Z,100.00
2023-05-02T04:08:38.952Z,100.00
2023-05-02T04:11:05.428Z,100.00
2023-05-02T04:13:32.041Z,100.00
2023-05-02T04:15:58.509Z,100.00
2023-05-02T04:18:24.970Z,100.00
2023-05-02T04:20:51.431Z,100.00
2023-05-02T04:23:18.017Z,100.00
2023-05-02T04:26:02.425Z,100.00
2023-05-02T04:28:36.326Z,100.00
2023-05-02T04:31:04.978Z,100.00
2023-05-02T04:33:31.700Z,100.00
2023-05-02T04:35:58.209Z,100.00
2023-05-02T04:38:24.830Z,100.00
2023-05-02T04:40:52.385Z,100.00
2023-05-02T04:43:18.874Z,100.00
2023-05-02T04:45:45.420Z,100.00
2023-05-02T04:48:12.244Z,100.00
2023-05-02T04:50:38.785Z,100.00
2023-05-02T04:53:05.373Z,100.00
2023-05-02T04:55:31.904Z,100.00
2023-05-02T04:57:58.340Z,100.00
2023-05-02T05:00:24.891Z,100.00
2023-05-02T05:02:51.823Z,100.00
2023-05-02T05:05:18.583Z,100.00
2023-05-02T05:07:45.481Z,100.00
2023-05-02T05:10:12.050Z,100.00
2023-05-02T05:12:38.647Z,100.00
2023-05-02T05:15:05.478Z,100.00
2023-05-02T05:17:32.114Z,100.00
2023-05-02T05:22:38.741Z,100.00
2023-05-02T05:25:05.965Z,100.00
2023-05-02T05:27:35.290Z,100.00
2023-05-02T05:30:02.313Z,100.00
2023-05-02T05:32:29.588Z,100.00
2023-05-02T05:34:56.247Z,100.00
2023-05-02T05:37:27.746Z,100.00
2023-05-02T05:39:54.190Z,98.21
2023-05-02T05:42:20.954Z,95.52
2023-05-02T05:44:47.419Z,83.75
2023-05-02T05:47:19.354Z,81.49
2023-05-02T05:49:59.094Z,78.50
2023-05-02T05:52:26.145Z,79.34
2023-05-02T05:54:59.712Z,84.67
2023-05-02T05:57:26.171Z,81.92
2023-05-02T05:59:52.699Z,80.14
2023-05-02T06:02:35.486Z,82.04
2023-05-02T06:05:02.116Z,81.25
2023-05-02T06:07:28.619Z,83.72
2023-05-02T06:09:55.101Z,88.79
2023-05-02T06:12:21.719Z,93.89
2023-05-02T06:14:48.170Z,94.81
2023-05-02T06:17:14.603Z,93.50
2023-05-02T06:19:41.152Z,98.40
2023-05-02T06:22:07.616Z,100.00
2023-05-02T06:24:34.183Z,100.00
2023-05-02T06:27:01.031Z,100.00
2023-05-02T06:29:28.584Z,100.00
2023-05-02T06:31:57.019Z,100.00
2023-05-02T06:34:23.860Z,100.00
2023-05-02T06:36:54.479Z,100.00
2023-05-02T06:39:20.979Z,100.00
2023-05-02T06:41:59.925Z,100.00
2023-05-02T06:44:26.355Z,100.00
2023-05-02T06:46:52.912Z,100.00
2023-05-02T06:49:19.348Z,100.00
2023-05-02T06:51:45.907Z,100.00
2023-05-02T06:54:12.723Z,100.00
2023-05-02T06:56:40.500Z,100.00
2023-05-02T06:59:06.954Z,100.00
2023-05-02T07:01:33.707Z,100.00
2023-05-02T07:04:03.959Z,98.93
2023-05-02T07:06:31.114Z,95.16
2023-05-02T07:08:59.701Z,96.23
2023-05-02T07:11:27.885Z,100.00
2023-05-02T07:13:54.573Z,100.00
2023-05-02T07:16:21.190Z,100.00
2023-05-02T07:18:47.656Z,100.00
2023-05-02T07:21:14.352Z,100.00
2023-05-02T07:23:46.780Z,93.65
2023-05-02T07:26:13.292Z,95.01
2023-05-02T07:28:39.728Z,97.83
2023-05-02T07:31:06.433Z,100.00
2023-05-02T07:33:32.916Z,98.64
2023-05-02T07:35:59.464Z,94.17
2023-05-02T07:38:38.878Z,89.49
2023-05-02T07:41:05.407Z,84.16
2023-05-02T07:43:32.254Z,86.18
2023-05-02T07:46:04.360Z,82.22
2023-05-02T07:48:31.177Z,75.44
2023-05-02T07:51:06.137Z,80.79
2023-05-02T07:53:32.644Z,82.64
2023-05-02T07:55:59.075Z,81.41
2023-05-02T07:58:25.574Z,81.90
2023-05-02T08:00:52.041Z,85.22
2023-05-02T08:03:18.662Z,82.04
2023-05-02T08:05:45.462Z,82.01
2023-05-02T08:08:11.976Z,84.32
2023-05-02T08:10:38.513Z,78.65
2023-05-02T08:13:05.101Z,80.12
2023-05-02T08:15:31.557Z,78.55
2023-05-02T08:17:58.102Z,78.08
2023-05-02T08:20:24.546Z,76.05
2023-05-02T08:22:51.448Z,81.53
2023-05-02T08:25:17.920Z,83.99
2023-05-02T08:27:51.208Z,74.40
2023-05-02T08:30:17.690Z,74.22
2023-05-02T08:32:44.248Z,74.80
2023-05-02T08:35:12.740Z,73.92
2023-05-02T08:37:39.698Z,72.98
2023-05-02T08:40:11.428Z,74.55
2023-05-02T08:42:41.248Z,73.49
2023-05-02T08:45:09.087Z,71.65
2023-05-02T08:47:40.337Z,69.69
2023-05-02T08:50:07.897Z,72.36
2023-05-02T08:52:34.651Z,77.65
2023-05-02T08:55:02.266Z,74.34
2023-05-02T08:57:36.279Z,70.95
2023-05-02T09:00:02.878Z,72.04
2023-05-02T09:02:45.255Z,73.61
2023-05-02T09:05:12.870Z,71.04
2023-05-02T09:07:47.634Z,70.85
2023-05-02T09:10:15.294Z,70.95
2023-05-02T09:12:42.104Z,69.74
2023-05-02T09:15:18.248Z,68.84
2023-05-02T09:17:48.221Z,68.38
2023-05-02T09:20:16.419Z,69.37
2023-05-02T09:22:50.966Z,70.31
2023-05-02T09:25:18.240Z,71.15
2023-05-02T09:27:55.886Z,70.03
2023-05-02T09:30:23.713Z,69.99
2023-05-02T09:32:51.866Z,70.37
2023-05-02T09:35:36.585Z,70.69
2023-05-02T09:38:03.793Z,74.22
2023-05-02T09:40:32.594Z,74.01
2023-05-02T09:42:59.325Z,77.10
2023-05-02T09:45:26.848Z,83.12
2023-05-02T09:47:53.765Z,80.45
2023-05-02T09:50:40.690Z,85.27
2023-05-02T09:53:14.344Z,86.76
2023-05-02T09:55:40.884Z,81.58
2023-05-02T09:58:07.692Z,95.93
2023-05-02T10:00:41.125Z,96.63
2023-05-02T10:03:08.624Z,96.25
2023-05-02T10:05:39.691Z,94.83
2023-05-02T10:08:07.787Z,97.14
2023-05-02T10:10:37.804Z,98.61
2023-05-02T10:13:05.845Z,96.38
2023-05-02T10:15:43.635Z,94.28
2023-05-02T10:18:15.989Z,93.43
2023-05-02T10:20:51.162Z,92.87
2023-05-02T10:23:19.580Z,86.47
2023-05-02T10:25:46.285Z,85.54
2023-05-02T10:28:13.213Z,95.35
2023-05-02T10:30:40.597Z,93.54
2023-05-02T10:33:07.281Z,95.72
2023-05-02T10:35:36.287Z,91.32
2023-05-02T10:38:03.723Z,89.71
2023-05-02T10:40:31.207Z,88.36
2023-05-02T10:42:57.914Z,92.45
2023-05-02T10:45:31.456Z,87.28
2023-05-02T10:48:20.919Z,89.81
2023-05-02T10:50:49.756Z,96.65
2023-05-02T10:53:26.254Z,90.34
2023-05-02T10:56:14.480Z,91.88
2023-05-02T10:58:42.330Z,93.84
2023-05-02T11:01:37.995Z,87.11
2023-05-02T11:04:05.518Z,88.37
2023-05-02T11:06:34.746Z,81.51
2023-05-02T11:09:27.717Z,80.15
2023-05-02T11:11:57.476Z,74.72
2023-05-02T11:14:29.740Z,85.37
2023-05-02T11:17:04.122Z,77.56
2023-05-02T11:19:56.527Z,75.26
2023-05-02T11:22:27.156Z,74.85
2023-05-02T11:24:54.314Z,74.82
2023-05-02T11:27:33.656Z,72.13
2023-05-02T11:30:09.293Z,72.68
2023-05-02T11:33:05.077Z,69.03
2023-05-02T11:35:31.716Z,70.06
2023-05-02T11:38:05.882Z,75.53
2023-05-02T11:40:32.616Z,71.06
2023-05-02T11:43:00.574Z,68.96
2023-05-02T11:45:37.199Z,67.40
2023-05-02T11:48:07.535Z,69.17
2023-05-02T11:50:49.536Z,66.83
2023-05-02T11:53:19.864Z,63.92
2023-05-02T11:56:00.432Z,64.95
2023-05-02T11:58:33.466Z,63.07
2023-05-02T12:01:15.417Z,61.09
2023-05-02T12:03:42.855Z,63.18
2023-05-02T12:06:14.685Z,59.46
2023-05-02T12:08:43.442Z,59.31
2023-05-02T12:11:12.771Z,60.18
2023-05-02T12:13:46.642Z,60.71
2023-05-02T12:16:13.626Z,60.06
2023-05-02T12:18:40.956Z,58.29
2023-05-02T12:21:12.797Z,60.63
2023-05-02T12:23:40.445Z,62.24
2023-05-02T12:26:29.460Z,60.59
2023-05-02T12:28:58.976Z,62.39
2023-05-02T12:31:28.198Z,60.83
2023-05-02T12:33:57.826Z,59.02
2023-05-02T12:36:24.692Z,58.73
2023-05-02T12:38:59.897Z,57.18
2023-05-02T12:41:39.654Z,56.31
2023-05-02T12:44:07.296Z,55.19
2023-05-02T12:46:33.905Z,57.74
2023-05-02T12:49:06.138Z,58.24
2023-05-02T12:51:33.103Z,57.69
2023-05-02T12:53:59.984Z,56.29
2023-05-02T12:56:32.130Z,58.03
2023-05-02T12:59:05.729Z,56.33
2023-05-02T13:01:35.697Z,54.88
2023-05-02T13:04:02.669Z,55.94
2023-05-02T13:06:29.253Z,54.32
2023-05-02T13:09:01.955Z,53.88
2023-05-02T13:11:28.458Z,56.32
2023-05-02T13:13:55.134Z,56.33
2023-05-02T13:16:21.793Z,54.75
2023-05-02T13:18:48.484Z,53.48
2023-05-02T13:21:15.074Z,53.92
2023-05-02T13:23:41.653Z,53.97
2023-05-02T13:26:08.201Z,55.00
2023-05-02T13:28:35.818Z,51.18
2023-05-02T13:31:03.743Z,52.14
2023-05-02T13:33:30.343Z,49.77
2023-05-02T13:35:56.843Z,51.48
2023-05-02T13:38:23.408Z,55.42
2023-05-02T13:40:50.001Z,54.43
2023-05-02T13:43:16.916Z,55.98
2023-05-02T13:45:52.263Z,57.81
2023-05-02T13:48:18.944Z,58.28
2023-05-02T13:50:45.739Z,57.92
2023-05-02T13:53:12.278Z,59.09
2023-05-02T13:55:38.752Z,60.11
2023-05-02T13:58:05.889Z,58.95
2023-05-02T14:00:32.663Z,60.01
2023-05-02T14:02:59.239Z,60.24
2023-05-02T14:05:25.945Z,59.31
2023-05-02T14:07:52.398Z,59.31
2023-05-02T14:10:18.913Z,58.98
2023-05-02T14:12:45.477Z,59.21
2023-05-02T14:15:13.284Z,61.54
2023-05-02T14:17:39.767Z,65.79
2023-05-02T14:20:07.998Z,70.57
2023-05-02T14:22:39.658Z,82.06
2023-05-02T14:25:06.641Z,85.81
2023-05-02T14:27:40.531Z,88.56
2023-05-02T14:30:07.792Z,94.98
2023-05-02T14:32:34.910Z,93.17
2023-05-02T14:35:01.804Z,100.00
2023-05-02T14:37:28.289Z,100.00
2023-05-02T14:39:56.296Z,100.00
2023-05-02T14:42:23.384Z,100.00
2023-05-02T14:44:50.046Z,100.00
2023-05-02T14:47:16.874Z,100.00
2023-05-02T14:49:43.585Z,98.11
2023-05-02T14:52:10.053Z,94.54
2023-05-02T14:54:44.630Z,97.57
2023-05-02T14:57:11.344Z,96.41
2023-05-02T14:59:38.862Z,95.27
2023-05-02T15:02:05.481Z,93.57
2023-05-02T15:04:32.336Z,88.78
2023-05-02T15:07:04.838Z,89.18
2023-05-02T15:09:31.495Z,95.21
2023-05-02T15:11:58.304Z,99.15
2023-05-02T15:14:54.509Z,93.12
2023-05-02T15:17:21.544Z,95.91
2023-05-02T15:19:48.073Z,100.00
2023-05-02T15:22:16.089Z,100.00
2023-05-02T15:24:42.567Z,98.66
2023-05-02T15:27:09.581Z,97.05
2023-05-02T15:29:51.374Z,96.93
2023-05-02T15:32:17.890Z,100.00
2023-05-02T15:34:44.706Z,100.00
2023-05-02T15:37:11.260Z,100.00
2023-05-02T15:39:44.740Z,100.00
2023-05-02T15:42:11.318Z,100.00
2023-05-02T15:44:37.931Z,98.81
2023-05-02T15:47:05.093Z,98.65
2023-05-02T15:49:33.155Z,98.96
2023-05-02T15:52:00.193Z,96.90
2023-05-02T15:54:26.907Z,100.00
2023-05-02T15:56:53.396Z,100.00
2023-05-02T15:59:19.974Z,100.00
2023-05-02T16:01:46.556Z,100.00
2023-05-02T16:04:13.218Z,100.00
2023-05-02T16:06:43.577Z,100.00
2023-05-02T16:09:10.729Z,99.41
2023-05-02T16:11:37.280Z,100.00
2023-05-02T16:14:03.957Z,99.90
2023-05-02T16:16:30.668Z,99.85
2023-05-02T16:18:57.269Z,96.63
2023-05-02T16:21:23.727Z,94.86
2023-05-02T16:23:50.319Z,92.01
2023-05-02T16:26:16.771Z,94.57
2023-05-02T16:28:43.277Z,100.00
2023-05-02T16:31:11.608Z,98.47
2023-05-02T16:33:39.295Z,100.00
2023-05-02T16:36:06.946Z,100.00
2023-05-02T16:38:33.556Z,100.00
2023-05-02T16:41:08.902Z,100.00
2023-05-02T16:43:35.486Z,100.00
2023-05-02T16:46:03.472Z,100.00
2023-05-02T16:48:30.361Z,99.79
2023-05-02T16:50:57.222Z,93.09
2023-05-02T16:53:27.915Z,90.14
2023-05-02T16:55:54.740Z,98.85
2023-05-02T16:58:21.638Z,91.52
2023-05-02T17:00:48.207Z,92.28
2023-05-02T17:03:14.959Z,87.71
2023-05-02T17:05:41.703Z,95.13
2023-05-02T17:08:09.274Z,100.00
2023-05-02T17:10:39.080Z,100.00
2023-05-02T17:13:05.896Z,100.00
2023-05-02T17:15:38.467Z,100.00
2023-05-02T17:18:05.163Z,100.00
2023-05-02T17:20:32.322Z,100.00
2023-05-02T17:23:00.575Z,100.00
2023-05-02T17:25:27.116Z,100.00
2023-05-02T17:27:53.774Z,99.52
2023-05-02T17:30:20.507Z,100.00
2023-05-02T17:32:47.222Z,100.00
2023-05-02T17:35:14.435Z,100.00
2023-05-02T17:37:40.981Z,100.00
2023-05-02T17:40:17.028Z,100.00
2023-05-02T17:42:47.678Z,100.00
2023-05-02T17:45:14.326Z,100.00
2023-05-02T17:47:40.982Z,100.00
2023-05-02T17:50:08.144Z,100.00
2023-05-02T17:52:40.940Z,100.00
2023-05-02T17:55:08.746Z,100.00
2023-05-02T17:57:35.421Z,100.00
2023-05-02T18:00:04.421Z,100.00
2023-05-02T18:02:33.544Z,100.00
2023-05-02T18:05:03.929Z,100.00
2023-05-02T18:07:31.818Z,100.00
2023-05-02T18:10:02.145Z,100.00
2023-05-02T18:12:29.082Z,100.00
2023-05-02T18:15:00.209Z,100.00
2023-05-02T18:17:27.996Z,100.00
2023-05-02T18:19:54.496Z,100.00
2023-05-02T18:22:22.002Z,100.00
2023-05-02T18:24:53.367Z,100.00
2023-05-02T18:27:20.004Z,100.00
2023-05-02T18:29:48.993Z,100.00
2023-05-02T18:32:21.744Z,100.00
2023-05-02T18:34:48.443Z,100.00
2023-05-02T18:37:15.970Z,100.00
2023-05-02T18:39:44.061Z,100.00
2023-05-02T18:42:10.990Z,100.00
2023-05-02T18:44:37.932Z,100.00
2023-05-02T18:47:04.592Z,100.00
2023-05-02T18:49:31.498Z,100.00
2023-05-02T18:52:05.213Z,100.00
2023-05-02T18:54:33.451Z,100.00
2023-05-02T18:57:03.728Z,100.00
2023-05-02T18:59:30.807Z,100.00
2023-05-02T19:01:58.201Z,100.00
2023-05-02T19:04:31.825Z,100.00
2023-05-02T19:06:58.386Z,100.00
2023-05-02T19:09:26.253Z,100.00
2023-05-02T19:11:55.037Z,100.00
2023-05-02T19:14:21.503Z,100.00
2023-05-02T19:16:48.015Z,100.00
2023-05-02T19:19:14.826Z,100.00
2023-05-02T19:21:42.193Z,100.00
2023-05-02T19:24:08.676Z,100.00
2023-05-02T19:26:35.133Z,100.00
2023-05-02T19:29:01.694Z,100.00
2023-05-02T19:31:32.219Z,100.00
2023-05-02T19:33:58.849Z,100.00
2023-05-02T19:36:27.358Z,100.00
2023-05-02T19:38:58.228Z,100.00
2023-05-02T19:41:38.379Z,100.00
2023-05-02T19:44:05.058Z,100.00
2023-05-02T19:46:33.789Z,100.00
2023-05-02T19:49:00.299Z,100.00
2023-05-02T19:51:28.129Z,100.00
2023-05-02T19:53:54.754Z,100.00
2023-05-02T19:56:25.327Z,100.00
2023-05-02T19:58:51.853Z,100.00
2023-05-02T20:01:18.467Z,100.00
2023-05-02T20:03:45.171Z,100.00
2023-05-02T20:06:11.964Z,100.00
2023-05-02T20:08:38.430Z,100.00
2023-05-02T20:11:05.283Z,100.00
2023-05-02T20:13:37.715Z,100.00
2023-05-02T20:16:04.453Z,100.00
2023-05-02T20:18:33.106Z,100.00
2023-05-02T20:20:59.538Z,100.00
2023-05-02T20:23:28.067Z,100.00
2023-05-02T20:25:54.777Z,100.00
2023-05-02T20:28:26.514Z,100.00
2023-05-02T20:30:58.710Z,100.00
2023-05-02T20:33:30.180Z,100.00
2023-05-02T20:36:04.055Z,100.00
2023-05-02T20:38:30.543Z,100.00
2023-05-02T20:40:57.521Z,100.00
2023-05-02T20:43:29.015Z,100.00
2023-05-02T20:45:57.652Z,100.00
2023-05-02T20:48:24.178Z,100.00
2023-05-02T20:50:54.443Z,100.00
2023-05-02T20:53:23.791Z,100.00
2023-05-02T20:55:50.980Z,100.00
2023-05-02T20:58:17.474Z,100.00
2023-05-02T21:00:44.055Z,100.00
2023-05-02T21:03:10.598Z,100.00
2023-05-02T21:05:37.129Z,100.00
2023-05-02T21:08:09.873Z,100.00
2023-05-02T21:10:36.424Z,100.00
2023-05-02T21:13:08.728Z,100.00
2023-05-02T21:15:36.021Z,100.00
2023-05-02T21:18:04.023Z,100.00
2023-05-02T21:20:30.800Z,100.00
2023-05-02T21:22:57.425Z,100.00
2023-05-02T21:26:16.795Z,100.00
2023-05-02T21:28:43.251Z,100.00
2023-05-02T21:31:10.738Z,100.00
2023-05-02T21:33:38.282Z,100.00
2023-05-02T21:36:04.976Z,100.00
2023-05-02T21:38:31.547Z,100.00
2023-05-02T21:41:02.179Z,100.00
2023-05-02T21:43:29.755Z,100.00
2023-05-02T21:45:56.274Z,100.00
2023-05-02T21:48:22.795Z,100.00
2023-05-02T21:50:49.797Z,100.00
2023-05-02T21:53:16.350Z,100.00
2023-05-02T21:55:44.865Z,100.00
2023-05-02T21:58:12.351Z,100.00
2023-05-02T22:00:41.005Z,100.00
2023-05-02T22:03:11.621Z,100.00
2023-05-02T22:05:39.933Z,100.00
2023-05-02T22:08:11.009Z,100.00
2023-05-02T22:10:39.374Z,100.00
2023-05-02T22:13:09.547Z,100.00
2023-05-02T22:15:36.768Z,100.00
2023-05-02T22:18:06.664Z,100.00
2023-05-02T22:20:33.341Z,100.00
2023-05-02T22:22:59.849Z,100.00
2023-05-02T22:25:26.389Z,100.00
2023-05-02T22:27:52.947Z,100.00
2023-05-02T22:30:20.675Z,100.00
2023-05-02T22:32:47.168Z,100.00
2023-05-02T22:35:13.712Z,100.00
2023-05-02T22:37:40.223Z,100.00
2023-05-02T22:40:08.426Z,100.00
2023-05-02T22:42:34.935Z,100.00
2023-05-02T22:45:01.846Z,100.00
2023-05-02T22:47:29.176Z,100.00
2023-05-02T22:50:05.038Z,100.00
2023-05-02T22:52:37.729Z,100.00
2023-05-02T22:55:09.263Z,100.00
2023-05-02T22:57:36.479Z,100.00
2023-05-02T23:00:05.397Z,100.00
2023-05-02T23:02:32.275Z,100.00
2023-05-02T23:05:00.854Z,100.00
2023-05-02T23:07:27.497Z,100.00
2023-05-02T23:09:54.150Z,100.00
2023-05-02T23:12:20.601Z,100.00
2023-05-02T23:14:47.099Z,100.00
2023-05-02T23:17:13.704Z,100.00
2023-05-02T23:19:40.291Z,100.00
2023-05-02T23:22:06.867Z,100.00
2023-05-02T23:24:33.479Z,100.00
2023-05-02T23:26:59.934Z,100.00
2023-05-02T23:29:26.397Z,100.00
2023-05-02T23:31:54.679Z,100.00
2023-05-02T23:34:21.932Z,100.00
2023-05-02T23:36:52.914Z,100.00
2023-05-02T23:39:19.480Z,100.00
2023-05-02T23:41:45.937Z,100.00
2023-05-02T23:44:12.433Z,100.00
2023-05-02T23:46:38.932Z,100.00
2023-05-02T23:49:05.410Z,100.00
2023-05-02T23:51:32.172Z,100.00
2023-05-02T23:53:58.972Z,100.00
2023-05-02T23:56:26.128Z,100.00
2023-05-02T23:58:52.679Z,100.00
